createdAt,value
2023-04-11T00:00:31.436Z,71.47
2023-04-11T00:01:53.606Z,69.15
2023-04-11T00:03:14.540Z,61.60
2023-04-11T00:04:35.546Z,66.85
2023-04-11T00:05:56.391Z,47.65
2023-04-11T00:07:17.197Z,57.60
2023-04-11T00:08:38.162Z,50.70
2023-04-11T00:09:58.812Z,52.60
2023-04-11T00:11:19.508Z,57.28
2023-04-11T00:12:40.201Z,59.58
2023-04-11T00:14:00.942Z,64.93
2023-04-11T00:15:21.937Z,53.25
2023-04-11T00:16:42.636Z,61.55
2023-04-11T00:18:05.840Z,62.58
2023-04-11T00:19:26.178Z,55.00
2023-04-11T00:20:47.079Z,60.75
2023-04-11T00:22:07.691Z,63.00
2023-04-11T00:23:28.770Z,62.25
2023-04-11T00:24:49.575Z,60.35
2023-04-11T00:26:10.644Z,61.47
2023-04-11T00:27:31.374Z,57.47
2023-04-11T00:28:52.578Z,63.10
2023-04-11T00:30:13.933Z,55.78
2023-04-11T00:31:34.939Z,47.70
2023-04-11T00:32:56.118Z,59.13
2023-04-11T00:34:18.242Z,60.90
2023-04-11T00:35:40.412Z,69.88
2023-04-11T00:37:00.956Z,50.88
2023-04-11T00:38:21.714Z,60.33
2023-04-11T00:39:42.186Z,54.35
2023-04-11T00:41:03.010Z,59.75
2023-04-11T00:42:23.816Z,52.00
2023-04-11T00:43:44.717Z,59.85
2023-04-11T00:45:06.198Z,47.50
2023-04-11T00:46:27.233Z,50.40
2023-04-11T00:47:48.148Z,42.88
2023-04-11T00:49:09.392Z,48.00
2023-04-11T00:50:31.519Z,42.35
2023-04-11T00:51:52.771Z,52.70
2023-04-11T00:53:13.832Z,55.42
2023-04-11T00:54:34.333Z,43.30
2023-04-11T00:55:54.997Z,38.95
2023-04-11T00:57:15.774Z,55.08
2023-04-11T00:58:36.538Z,52.13
2023-04-11T00:59:57.613Z,54.27
2023-04-11T01:01:18.154Z,51.15
2023-04-11T01:02:39.270Z,45.00
2023-04-11T01:04:00.420Z,51.08
2023-04-11T01:05:21.816Z,45.45
2023-04-11T01:06:44.955Z,44.85
2023-04-11T01:08:05.781Z,40.72
2023-04-11T01:09:27.634Z,39.38
2023-04-11T01:10:48.240Z,48.10
2023-04-11T01:12:09.516Z,35.53
2023-04-11T01:13:31.015Z,34.97
2023-04-11T01:14:51.780Z,37.17
2023-04-11T01:16:13.408Z,29.95
2023-04-11T01:18:55.196Z,26.95
2023-04-11T01:20:15.772Z,26.08
2023-04-11T01:21:36.509Z,27.10
2023-04-11T01:22:59.311Z,21.75
2023-04-11T01:24:21.359Z,24.73
2023-04-11T01:25:42.276Z,25.38
2023-04-11T01:27:02.870Z,28.10
2023-04-11T01:28:23.492Z,31.33
2023-04-11T01:29:44.459Z,30.38
2023-04-11T01:31:05.677Z,25.48
2023-04-11T01:32:26.624Z,15.32
2023-04-11T01:33:47.516Z,19.58
2023-04-11T01:35:09.355Z,23.60
2023-04-11T01:36:30.720Z,24.33
2023-04-11T01:37:51.135Z,22.45
2023-04-11T01:39:11.775Z,22.67
2023-04-11T01:40:33.884Z,21.02
2023-04-11T01:41:54.881Z,30.83
2023-04-11T01:43:15.966Z,28.35
2023-04-11T01:44:37.296Z,24.73
2023-04-11T01:45:58.379Z,25.38
2023-04-11T01:47:19.125Z,20.83
2023-04-11T01:48:40.178Z,23.92
2023-04-11T01:50:01.440Z,30.30
2023-04-11T01:51:22.383Z,22.48
2023-04-11T01:52:43.139Z,28.90
2023-04-11T01:54:04.529Z,29.08
2023-04-11T01:55:25.266Z,26.55
2023-04-11T01:56:47.557Z,27.52
2023-04-11T01:58:08.397Z,19.73
2023-04-11T01:59:28.945Z,26.73
2023-04-11T02:00:49.432Z,28.40
2023-04-11T02:02:10.312Z,29.27
2023-04-11T02:03:30.890Z,22.00
2023-04-11T02:04:51.658Z,28.63
2023-04-11T02:06:12.704Z,35.30
2023-04-11T02:07:33.116Z,32.63
2023-04-11T02:08:54.017Z,29.20
2023-04-11T02:10:14.798Z,22.27
2023-04-11T02:11:35.799Z,23.98
2023-04-11T02:12:57.992Z,22.42
2023-04-11T02:14:20.128Z,21.23
2023-04-11T02:15:41.246Z,23.10
2023-04-11T02:17:01.988Z,20.90
2023-04-11T02:18:23.074Z,28.23
2023-04-11T02:19:43.514Z,29.77
2023-04-11T02:21:05.612Z,22.13
2023-04-11T02:22:26.088Z,23.17
2023-04-11T02:23:46.333Z,21.58
2023-04-11T02:25:08.299Z,23.27
2023-04-11T02:26:28.818Z,27.95
2023-04-11T02:27:49.715Z,24.52
2023-04-11T02:29:11.836Z,23.17
2023-04-11T02:30:32.600Z,24.00
2023-04-11T02:31:53.586Z,30.05
2023-04-11T02:33:14.113Z,35.78
2023-04-11T02:34:34.710Z,25.83
2023-04-11T02:35:55.636Z,19.55
2023-04-11T02:37:16.626Z,36.85
2023-04-11T02:38:37.054Z,25.33
2023-04-11T02:39:58.060Z,25.25
2023-04-11T02:41:18.644Z,25.35
2023-04-11T02:42:39.526Z,22.23
2023-04-11T02:44:00.272Z,24.23
2023-04-11T02:45:22.577Z,24.48
2023-04-11T02:46:45.018Z,27.70
2023-04-11T02:48:06.093Z,25.90
2023-04-11T02:49:26.994Z,22.10
2023-04-11T02:50:48.235Z,24.65
2023-04-11T02:52:08.794Z,23.57
2023-04-11T02:53:29.762Z,29.20
2023-04-11T02:54:50.599Z,24.38
2023-04-11T02:56:11.324Z,22.83
2023-04-11T02:57:32.219Z,26.10
2023-04-11T02:58:53.061Z,23.38
2023-04-11T03:00:14.033Z,26.67
2023-04-11T03:01:36.415Z,22.58
2023-04-11T03:02:57.374Z,26.92
2023-04-11T03:04:18.260Z,24.58
2023-04-11T03:05:38.993Z,21.35
2023-04-11T03:06:59.415Z,23.17
2023-04-11T03:08:20.234Z,27.17
2023-04-11T03:09:41.279Z,26.88
2023-04-11T03:11:02.314Z,26.70
2023-04-11T03:12:23.511Z,27.05
2023-04-11T03:13:44.042Z,27.90
2023-04-11T03:15:05.271Z,28.17
2023-04-11T03:17:48.329Z,22.33
2023-04-11T03:19:09.230Z,34.83
2023-04-11T03:20:29.675Z,25.52
2023-04-11T03:21:50.447Z,23.85
2023-04-11T03:23:11.113Z,27.00
2023-04-11T03:24:31.875Z,20.05
2023-04-11T03:25:52.673Z,25.52
2023-04-11T03:27:13.062Z,23.63
2023-04-11T03:28:33.670Z,30.27
2023-04-11T03:29:54.335Z,20.37
2023-04-11T03:31:14.895Z,26.77
2023-04-11T03:32:35.561Z,14.52
2023-04-11T03:33:57.788Z,24.90
2023-04-11T03:35:18.225Z,21.80
2023-04-11T03:36:38.985Z,19.90
2023-04-11T03:37:59.629Z,26.50
2023-04-11T03:39:21.408Z,13.60
2023-04-11T03:40:42.016Z,20.10
2023-04-11T03:42:02.797Z,17.65
2023-04-11T03:43:23.586Z,20.13
2023-04-11T03:44:44.406Z,25.25
2023-04-11T03:46:05.317Z,18.80
2023-04-11T03:47:26.016Z,23.33
2023-04-11T03:48:46.751Z,25.23
2023-04-11T03:50:09.750Z,18.55
2023-04-11T03:51:30.233Z,18.05
2023-04-11T03:52:50.868Z,22.75
2023-04-11T03:54:11.636Z,15.10
2023-04-11T03:55:32.358Z,30.75
2023-04-11T03:56:53.109Z,16.50
2023-04-11T03:58:13.751Z,21.33
2023-04-11T03:59:34.438Z,23.83
2023-04-11T04:00:54.957Z,23.90
2023-04-11T04:02:15.920Z,23.73
2023-04-11T04:03:36.921Z,17.92
2023-04-11T04:04:58.063Z,19.08
2023-04-11T04:06:20.152Z,21.83
2023-04-11T04:07:40.605Z,15.25
2023-04-11T04:09:01.414Z,15.73
2023-04-11T04:10:22.018Z,14.45
2023-04-11T04:11:42.388Z,23.00
2023-04-11T04:13:02.805Z,15.73
2023-04-11T04:14:23.369Z,26.05
2023-04-11T04:15:43.745Z,20.10
2023-04-11T04:17:04.462Z,25.30
2023-04-11T04:18:25.306Z,15.88
2023-04-11T04:19:45.837Z,18.30
2023-04-11T04:21:06.778Z,19.83
2023-04-11T04:22:29.659Z,14.95
2023-04-11T04:23:50.497Z,19.85
2023-04-11T04:25:11.235Z,16.17
2023-04-11T04:26:31.945Z,21.20
2023-04-11T04:27:52.302Z,25.85
2023-04-11T04:29:12.688Z,25.92
2023-04-11T04:30:33.787Z,21.85
2023-04-11T04:31:54.521Z,17.15
2023-04-11T04:33:15.473Z,20.25
2023-04-11T04:34:39.000Z,14.43
2023-04-11T04:35:59.427Z,18.30
2023-04-11T04:37:20.326Z,20.85
2023-04-11T04:38:42.075Z,16.47
2023-04-11T04:40:03.042Z,14.98
2023-04-11T04:41:23.688Z,17.17
2023-04-11T04:42:44.421Z,24.13
2023-04-11T04:44:05.186Z,19.90
2023-04-11T04:45:25.986Z,30.83
2023-04-11T04:46:46.800Z,14.38
2023-04-11T04:48:07.378Z,21.85
2023-04-11T04:49:28.145Z,21.50
2023-04-11T04:50:48.982Z,15.82
2023-04-11T04:52:09.622Z,19.90
2023-04-11T04:53:30.281Z,17.98
2023-04-11T04:54:52.294Z,22.67
2023-04-11T04:56:12.713Z,17.92
2023-04-11T04:57:33.450Z,22.13
2023-04-11T04:58:54.268Z,18.00
2023-04-11T05:00:15.424Z,17.85
2023-04-11T05:01:36.293Z,21.77
2023-04-11T05:02:57.212Z,21.83
2023-04-11T05:04:18.095Z,22.08
2023-04-11T05:05:38.896Z,23.75
2023-04-11T05:06:59.464Z,27.35
2023-04-11T05:08:20.160Z,28.70
2023-04-11T05:09:40.929Z,23.50
2023-04-11T05:11:03.210Z,29.48
2023-04-11T05:12:23.711Z,31.83
2023-04-11T05:13:44.519Z,31.77
2023-04-11T05:15:05.857Z,31.30
2023-04-11T05:16:26.189Z,22.27
2023-04-11T05:17:47.100Z,25.17
2023-04-11T05:19:07.947Z,20.25
2023-04-11T05:20:28.914Z,33.42
2023-04-11T05:21:49.549Z,26.88
2023-04-11T05:23:10.140Z,25.45
2023-04-11T05:24:30.951Z,23.67
2023-04-11T05:25:51.616Z,24.03
2023-04-11T05:27:13.672Z,28.88
2023-04-11T05:28:34.667Z,27.33
2023-04-11T05:29:55.254Z,26.98
2023-04-11T05:31:15.832Z,26.97
2023-04-11T05:32:36.452Z,26.88
2023-04-11T05:33:57.533Z,25.65
2023-04-11T05:35:18.329Z,24.90
2023-04-11T05:36:38.949Z,25.35
2023-04-11T05:37:59.709Z,30.67
2023-04-11T05:39:20.459Z,27.00
2023-04-11T05:40:41.684Z,26.05
2023-04-11T05:42:02.496Z,30.90
2023-04-11T05:43:24.174Z,28.33
2023-04-11T05:44:44.932Z,30.35
2023-04-11T05:46:06.757Z,27.88
2023-04-11T05:48:47.285Z,26.40
2023-04-11T05:50:10.056Z,26.50
2023-04-11T05:51:30.681Z,31.63
2023-04-11T05:52:51.162Z,33.05
2023-04-11T05:54:13.455Z,27.55
2023-04-11T05:55:34.364Z,26.50
2023-04-11T05:56:54.940Z,22.42
2023-04-11T05:58:15.428Z,26.70
2023-04-11T05:59:37.446Z,28.88
2023-04-11T06:00:58.025Z,28.88
2023-04-11T06:02:18.804Z,28.98
2023-04-11T06:03:39.541Z,23.50
2023-04-11T06:05:00.282Z,24.10
2023-04-11T06:06:20.945Z,22.30
2023-04-11T06:07:41.543Z,21.50
2023-04-11T06:09:02.110Z,22.10
2023-04-11T06:10:22.993Z,25.70
2023-04-11T06:11:43.523Z,27.33
2023-04-11T06:14:40.720Z,30.30
2023-04-11T06:16:01.594Z,23.75
2023-04-11T06:17:22.431Z,30.08
2023-04-11T06:18:43.160Z,34.40
2023-04-11T06:20:06.021Z,27.70
2023-04-11T06:21:26.955Z,25.17
2023-04-11T06:22:47.583Z,26.33
2023-04-11T06:24:09.776Z,30.05
2023-04-11T06:25:30.607Z,18.33
2023-04-11T06:26:51.041Z,26.67
2023-04-11T06:28:12.127Z,23.52
2023-04-11T06:29:32.924Z,20.70
2023-04-11T06:30:54.957Z,22.13
2023-04-11T06:32:15.780Z,25.77
2023-04-11T06:33:36.412Z,21.37
2023-04-11T06:34:57.353Z,26.30
2023-04-11T06:36:17.874Z,23.73
2023-04-11T06:37:38.635Z,24.42
2023-04-11T06:38:59.087Z,24.08
2023-04-11T06:40:19.953Z,25.25
2023-04-11T06:41:40.589Z,23.05
2023-04-11T06:43:01.328Z,23.95
2023-04-11T06:44:21.929Z,28.20
2023-04-11T06:45:42.590Z,27.42
2023-04-11T06:47:04.883Z,28.05
2023-04-11T06:48:25.830Z,27.45
2023-04-11T06:49:46.226Z,24.45
2023-04-11T06:51:07.384Z,28.40
2023-04-11T06:52:28.410Z,24.75
2023-04-11T06:53:48.928Z,26.43
2023-04-11T06:55:09.897Z,20.10
2023-04-11T06:56:30.345Z,28.83
2023-04-11T06:57:50.997Z,22.63
2023-04-11T06:59:12.205Z,25.45
2023-04-11T07:00:32.907Z,25.17
2023-04-11T07:01:54.037Z,19.35
2023-04-11T07:03:16.436Z,25.25
2023-04-11T07:04:37.495Z,24.75
2023-04-11T07:05:58.033Z,29.65
2023-04-11T07:07:18.748Z,25.45
2023-04-11T07:08:39.128Z,23.85
2023-04-11T07:09:59.762Z,26.75
2023-04-11T07:11:20.473Z,22.33
2023-04-11T07:12:40.969Z,24.47
2023-04-11T07:14:02.496Z,25.83
2023-04-11T07:15:22.941Z,23.27
2023-04-11T07:16:43.601Z,21.67
2023-04-11T07:18:04.412Z,19.00
2023-04-11T07:19:26.181Z,18.75
2023-04-11T07:20:46.973Z,17.90
2023-04-11T07:22:07.385Z,28.93
2023-04-11T07:23:28.415Z,27.35
2023-04-11T07:24:51.760Z,22.90
2023-04-11T07:26:21.144Z,26.75
2023-04-11T07:27:41.706Z,26.00
2023-04-11T07:29:02.419Z,22.23
2023-04-11T07:30:23.119Z,28.50
2023-04-11T07:31:43.755Z,30.27
2023-04-11T07:33:04.478Z,18.27
2023-04-11T07:34:26.159Z,19.92
2023-04-11T07:35:46.883Z,31.98
2023-04-11T07:37:07.820Z,29.05
2023-04-11T07:38:28.608Z,23.63
2023-04-11T07:39:49.248Z,27.02
2023-04-11T07:41:09.992Z,25.52
2023-04-11T07:42:30.688Z,24.55
2023-04-11T07:43:51.357Z,17.50
2023-04-11T07:45:12.445Z,27.02
2023-04-11T07:46:33.969Z,29.38
2023-04-11T07:47:54.522Z,24.90
2023-04-11T07:49:15.182Z,36.65
2023-04-11T07:50:37.138Z,22.88
2023-04-11T07:51:57.969Z,21.08
2023-04-11T07:53:18.890Z,19.92
2023-04-11T07:54:39.552Z,22.67
2023-04-11T07:56:00.328Z,31.10
2023-04-11T07:57:21.003Z,26.13
2023-04-11T07:58:41.863Z,26.70
2023-04-11T08:00:02.416Z,23.42
2023-04-11T08:01:23.934Z,32.55
2023-04-11T08:04:05.720Z,30.60
2023-04-11T08:05:26.458Z,25.45
2023-04-11T08:06:48.648Z,24.63
2023-04-11T08:08:09.223Z,34.45
2023-04-11T08:09:30.219Z,23.45
2023-04-11T08:10:52.115Z,22.77
2023-04-11T08:12:12.727Z,23.60
2023-04-11T08:13:33.500Z,21.80
2023-04-11T08:14:54.438Z,26.85
2023-04-11T08:16:15.592Z,22.55
2023-04-11T08:17:36.228Z,24.20
2023-04-11T08:18:56.749Z,24.25
2023-04-11T08:20:18.746Z,22.50
2023-04-11T08:21:39.610Z,25.90
2023-04-11T08:23:02.211Z,20.43
2023-04-11T08:24:24.397Z,19.90
2023-04-11T08:25:45.109Z,16.63
2023-04-11T08:27:05.987Z,27.30
2023-04-11T08:28:26.807Z,22.73
2023-04-11T08:29:47.707Z,19.65
2023-04-11T08:31:08.571Z,22.73
2023-04-11T08:32:29.157Z,25.25
2023-04-11T08:33:50.214Z,27.67
2023-04-11T08:35:11.227Z,22.08
2023-04-11T08:36:31.680Z,24.45
2023-04-11T08:37:52.423Z,25.63
2023-04-11T08:39:14.383Z,22.53
2023-04-11T08:40:35.054Z,26.60
2023-04-11T08:41:55.806Z,20.90
2023-04-11T08:43:16.958Z,15.13
2023-04-11T08:44:37.288Z,17.95
2023-04-11T08:45:57.913Z,14.95
2023-04-11T08:47:18.624Z,14.93
2023-04-11T08:48:39.417Z,25.02
2023-04-11T08:50:00.030Z,18.23
2023-04-11T08:51:22.704Z,16.75
2023-04-11T08:52:45.288Z,15.60
2023-04-11T08:54:06.246Z,21.02
2023-04-11T08:55:28.472Z,19.23
2023-04-11T08:56:48.962Z,19.95
2023-04-11T08:58:09.762Z,19.90
2023-04-11T08:59:30.350Z,19.95
2023-04-11T09:00:51.110Z,13.40
2023-04-11T09:02:12.213Z,16.38
2023-04-11T09:03:49.956Z,19.83
2023-04-11T09:05:24.962Z,27.45
2023-04-11T09:06:57.442Z,17.08
2023-04-11T09:08:19.401Z,14.55
2023-04-11T09:09:39.963Z,17.85
2023-04-11T09:11:02.578Z,14.23
2023-04-11T09:12:30.076Z,15.05
2023-04-11T09:14:05.528Z,24.15
2023-04-11T09:15:27.759Z,21.42
2023-04-11T09:16:54.705Z,17.83
2023-04-11T09:18:33.052Z,19.42
2023-04-11T09:19:53.672Z,13.52
2023-04-11T09:21:15.821Z,18.60
2023-04-11T09:22:36.322Z,18.05
2023-04-11T09:24:13.937Z,18.45
2023-04-11T09:25:50.300Z,14.38
2023-04-11T09:27:13.868Z,20.02
2023-04-11T09:28:41.928Z,14.57
2023-04-11T09:30:02.866Z,15.85
2023-04-11T09:31:40.033Z,17.50
2023-04-11T09:33:18.182Z,10.45
2023-04-11T09:34:41.140Z,13.35
2023-04-11T09:36:18.220Z,16.77
2023-04-11T09:37:45.916Z,16.00
2023-04-11T09:39:18.457Z,15.25
2023-04-11T09:40:42.612Z,20.70
2023-04-11T09:42:24.582Z,16.55
2023-04-11T09:43:52.749Z,14.02
2023-04-11T09:45:20.370Z,16.25
2023-04-11T09:46:56.205Z,19.92
2023-04-11T09:48:16.926Z,18.52
2023-04-11T09:49:39.266Z,12.30
2023-04-11T09:51:01.211Z,20.25
2023-04-11T09:52:22.297Z,17.23
2023-04-11T09:53:42.910Z,19.13
2023-04-11T09:55:03.899Z,16.75
2023-04-11T09:56:24.405Z,24.02
2023-04-11T09:57:48.317Z,20.38
2023-04-11T09:59:09.475Z,17.83
2023-04-11T10:00:30.222Z,19.33
2023-04-11T10:01:51.147Z,17.90
2023-04-11T10:03:12.068Z,15.82
2023-04-11T10:04:32.858Z,18.50
2023-04-11T10:05:54.466Z,12.77
2023-04-11T10:07:15.474Z,16.73
2023-04-11T10:08:36.811Z,13.38
2023-04-11T10:09:57.680Z,14.55
2023-04-11T10:11:18.430Z,13.85
2023-04-11T10:12:42.212Z,11.98
2023-04-11T10:14:04.392Z,18.05
2023-04-11T10:15:25.138Z,13.48
2023-04-11T10:17:10.397Z,13.68
2023-04-11T10:18:30.811Z,12.30
2023-04-11T10:19:55.113Z,11.50
2023-04-11T10:21:38.902Z,23.98
2023-04-11T10:23:00.152Z,14.48
2023-04-11T10:24:21.464Z,25.77
2023-04-11T10:25:49.521Z,16.98
2023-04-11T10:27:10.245Z,19.00
2023-04-11T10:28:35.735Z,21.47
2023-04-11T10:29:57.411Z,18.30
2023-04-11T10:31:18.235Z,15.13
2023-04-11T10:32:38.684Z,16.83
2023-04-11T10:34:14.213Z,16.35
2023-04-11T10:35:34.817Z,15.95
2023-04-11T10:37:06.596Z,21.67
2023-04-11T10:40:07.057Z,23.38
2023-04-11T10:41:29.501Z,17.30
2023-04-11T10:42:49.902Z,13.88
2023-04-11T10:44:15.980Z,11.32
2023-04-11T10:45:37.652Z,23.38
2023-04-11T10:46:58.001Z,12.68
2023-04-11T10:48:18.753Z,16.30
2023-04-11T10:49:40.234Z,17.53
2023-04-11T10:51:00.453Z,19.67
2023-04-11T10:52:22.630Z,14.95
2023-04-11T10:53:43.206Z,18.02
2023-04-11T10:55:15.267Z,11.23
2023-04-11T10:58:16.072Z,17.48
2023-04-11T11:00:00.565Z,15.48
2023-04-11T11:01:32.055Z,19.58
2023-04-11T11:04:31.010Z,17.77
2023-04-11T11:05:58.250Z,14.60
2023-04-11T11:07:18.870Z,17.23
2023-04-11T11:08:40.534Z,29.98
2023-04-11T11:10:00.979Z,18.45
2023-04-11T11:11:21.661Z,23.65
2023-04-11T11:12:54.852Z,12.60
2023-04-11T11:14:28.335Z,22.95
2023-04-11T11:15:49.520Z,17.30
2023-04-11T11:17:12.197Z,17.50
2023-04-11T11:18:32.559Z,11.68
2023-04-11T11:19:53.298Z,20.60
2023-04-11T11:21:20.658Z,9.07
2023-04-11T11:23:00.463Z,18.90
2023-04-11T11:24:24.647Z,18.67
2023-04-11T11:25:52.670Z,14.65
2023-04-11T11:27:19.094Z,17.10
2023-04-11T11:28:46.112Z,24.25
2023-04-11T11:30:11.264Z,23.95
2023-04-11T11:31:38.954Z,23.42
2023-04-11T11:33:14.421Z,23.60
2023-04-11T11:34:35.361Z,23.77
2023-04-11T11:35:57.356Z,17.98
2023-04-11T11:37:17.714Z,20.42
2023-04-11T11:38:38.164Z,27.88
2023-04-11T11:39:58.840Z,18.27
2023-04-11T11:41:19.364Z,15.88
2023-04-11T11:42:40.383Z,19.88
2023-04-11T11:44:01.348Z,19.80
2023-04-11T11:45:22.777Z,17.63
2023-04-11T11:47:00.770Z,16.73
2023-04-11T11:48:23.738Z,19.75
2023-04-11T11:49:48.411Z,24.00
2023-04-11T11:51:08.855Z,21.45
2023-04-11T11:52:33.415Z,22.35
2023-04-11T11:54:05.024Z,21.70
2023-04-11T11:55:32.389Z,22.42
2023-04-11T11:56:53.072Z,21.83
2023-04-11T11:58:13.741Z,18.97
2023-04-11T11:59:34.558Z,29.25
2023-04-11T12:00:55.478Z,16.25
2023-04-11T12:02:16.602Z,23.48
2023-04-11T12:03:38.453Z,20.42
2023-04-11T12:05:00.548Z,21.80
2023-04-11T12:06:21.556Z,20.65
2023-04-11T12:07:42.423Z,19.15
2023-04-11T12:09:05.787Z,20.33
2023-04-11T12:10:28.507Z,15.95
2023-04-11T12:11:49.197Z,19.20
2023-04-11T12:13:14.800Z,20.35
2023-04-11T12:14:35.408Z,16.98
2023-04-11T12:15:57.186Z,16.15
2023-04-11T12:17:18.010Z,19.92
2023-04-11T12:18:42.370Z,21.63
2023-04-11T12:20:03.118Z,17.20
2023-04-11T12:21:23.467Z,15.53
2023-04-11T12:22:44.457Z,12.57
2023-04-11T12:24:06.287Z,17.63
2023-04-11T12:25:28.081Z,19.92
2023-04-11T12:28:27.106Z,21.60
2023-04-11T12:29:47.578Z,14.90
2023-04-11T12:31:08.423Z,15.68
2023-04-11T12:32:29.126Z,18.23
2023-04-11T12:33:51.596Z,19.53
2023-04-11T12:35:12.413Z,14.70
2023-04-11T12:37:54.072Z,21.00
2023-04-11T12:39:04.462Z,12.20
2023-04-11T12:40:25.125Z,18.67
2023-04-11T12:41:45.853Z,18.80
2023-04-11T12:43:06.601Z,18.92
2023-04-11T12:44:27.212Z,16.35
2023-04-11T12:45:48.179Z,15.02
2023-04-11T12:47:08.687Z,15.77
2023-04-11T12:48:29.264Z,12.32
2023-04-11T12:49:51.624Z,15.43
2023-04-11T12:51:12.405Z,13.60
2023-04-11T12:52:33.612Z,18.27
2023-04-11T12:53:54.097Z,15.40
2023-04-11T12:55:14.675Z,18.73
2023-04-11T12:56:35.246Z,16.55
2023-04-11T12:57:55.877Z,15.23
2023-04-11T12:59:16.621Z,26.13
2023-04-11T13:00:37.382Z,17.85
2023-04-11T13:01:58.196Z,17.73
2023-04-11T13:03:18.999Z,12.50
2023-04-11T13:04:40.123Z,14.73
2023-04-11T13:06:01.799Z,11.73
2023-04-11T13:07:22.542Z,13.02
2023-04-11T13:08:43.007Z,13.80
2023-04-11T13:10:03.908Z,21.85
2023-04-11T13:11:24.521Z,12.65
2023-04-11T13:12:45.885Z,19.77
2023-04-11T13:14:06.748Z,12.48
2023-04-11T13:15:27.377Z,12.02
2023-04-11T13:16:47.952Z,12.57
2023-04-11T13:18:08.578Z,10.47
2023-04-11T13:19:29.029Z,16.08
2023-04-11T13:20:49.797Z,11.57
2023-04-11T13:22:11.904Z,18.37
2023-04-11T13:23:32.660Z,15.05
2023-04-11T13:24:52.815Z,17.05
2023-04-11T13:26:13.535Z,10.67
2023-04-11T13:27:34.266Z,14.18
2023-04-11T13:28:54.971Z,13.57
2023-04-11T13:30:15.614Z,10.75
2023-04-11T13:31:36.238Z,13.20
2023-04-11T13:32:57.409Z,15.95
2023-04-11T13:34:18.095Z,12.70
2023-04-11T13:35:38.675Z,14.18
2023-04-11T13:36:59.249Z,13.23
2023-04-11T13:38:21.369Z,14.27
2023-04-11T13:39:42.756Z,14.43
2023-04-11T13:41:03.487Z,13.13
2023-04-11T13:42:24.271Z,19.57
2023-04-11T13:43:44.876Z,12.05
2023-04-11T13:45:06.242Z,12.05
2023-04-11T13:46:26.728Z,14.15
2023-04-11T13:47:47.560Z,18.17
2023-04-11T13:49:08.126Z,19.60
2023-04-11T13:50:28.754Z,16.48
2023-04-11T13:51:49.487Z,17.02
2023-04-11T13:53:10.144Z,10.10
2023-04-11T13:54:32.290Z,12.30
2023-04-11T13:55:52.816Z,15.73
2023-04-11T13:57:13.571Z,15.50
2023-04-11T13:58:34.270Z,16.75
2023-04-11T13:59:55.030Z,13.23
2023-04-11T14:01:15.809Z,10.68
2023-04-11T14:02:36.543Z,11.02
2023-04-11T14:03:57.905Z,11.90
2023-04-11T14:05:18.760Z,12.13
2023-04-11T14:06:39.649Z,13.50
2023-04-11T14:08:00.436Z,9.40
2023-04-11T14:09:21.108Z,12.88
2023-04-11T14:10:43.135Z,10.17
2023-04-11T14:12:03.937Z,12.70
2023-04-11T14:13:24.540Z,12.73
2023-04-11T14:14:45.265Z,7.13
2023-04-11T14:16:09.214Z,9.68
2023-04-11T14:17:30.416Z,8.95
2023-04-11T14:18:51.084Z,8.18
2023-04-11T14:20:12.267Z,13.88
2023-04-11T14:21:32.692Z,13.98
2023-04-11T14:22:53.338Z,7.43
2023-04-11T14:24:14.386Z,8.77
2023-04-11T14:25:35.061Z,8.83
2023-04-11T14:26:56.953Z,12.95
2023-04-11T14:28:17.477Z,8.55
2023-04-11T14:29:38.206Z,15.73
2023-04-11T14:30:59.048Z,8.57
2023-04-11T14:32:19.601Z,12.73
2023-04-11T14:33:40.309Z,8.67
2023-04-11T14:35:02.315Z,9.10
2023-04-11T14:36:23.378Z,16.58
2023-04-11T14:37:44.086Z,16.02
2023-04-11T14:39:04.772Z,14.07
2023-04-11T14:40:25.344Z,11.57
2023-04-11T14:41:46.843Z,8.43
2023-04-11T14:43:08.740Z,10.38
2023-04-11T14:44:29.882Z,12.85
2023-04-11T14:45:54.510Z,11.05
2023-04-11T14:47:15.151Z,11.95
2023-04-11T14:48:36.140Z,8.00
2023-04-11T14:49:57.288Z,12.43
2023-04-11T14:51:17.750Z,9.25
2023-04-11T14:52:38.500Z,12.70
2023-04-11T14:53:59.359Z,10.18
2023-04-11T14:55:19.939Z,17.37
2023-04-11T14:56:40.628Z,10.32
2023-04-11T14:58:01.051Z,10.55
2023-04-11T14:59:23.409Z,16.83
2023-04-11T15:00:44.183Z,13.25
2023-04-11T15:02:04.710Z,8.48
2023-04-11T15:03:25.401Z,20.07
2023-04-11T15:04:46.476Z,9.57
2023-04-11T15:06:08.205Z,9.45
2023-04-11T15:08:50.515Z,9.88
2023-04-11T15:10:12.567Z,11.85
2023-04-11T15:11:32.860Z,14.02
2023-04-11T15:12:53.684Z,10.55
2023-04-11T15:14:14.489Z,9.20
2023-04-11T15:15:36.914Z,8.02
2023-04-11T15:16:57.381Z,7.40
2023-04-11T15:18:19.878Z,13.10
2023-04-11T15:19:40.512Z,12.10
2023-04-11T15:21:01.320Z,9.30
2023-04-11T15:22:21.884Z,9.85
2023-04-11T15:23:42.448Z,8.70
2023-04-11T15:25:03.197Z,8.90
2023-04-11T15:26:24.050Z,10.68
2023-04-11T15:27:45.081Z,8.00
2023-04-11T15:29:06.470Z,6.78
2023-04-11T15:30:27.001Z,9.25
2023-04-11T15:31:49.127Z,6.53
2023-04-11T15:33:09.997Z,10.50
2023-04-11T15:34:30.778Z,8.57
2023-04-11T15:35:52.218Z,9.23
2023-04-11T15:37:12.562Z,12.90
2023-04-11T15:38:33.063Z,10.77
2023-04-11T15:39:53.525Z,10.27
2023-04-11T15:41:14.237Z,11.60
2023-04-11T15:42:34.827Z,8.50
2023-04-11T15:43:55.773Z,10.05
2023-04-11T15:45:16.968Z,6.35
2023-04-11T15:46:37.353Z,14.38
2023-04-11T15:48:00.151Z,10.98
2023-04-11T15:49:20.724Z,11.63
2023-04-11T15:50:42.381Z,16.90
2023-04-11T15:52:02.908Z,12.30
2023-04-11T15:53:23.593Z,11.73
2023-04-11T15:54:44.275Z,10.67
2023-04-11T15:56:05.350Z,14.85
2023-04-11T15:57:26.317Z,11.60
2023-04-11T15:58:48.202Z,11.35
2023-04-11T16:00:09.935Z,12.98
2023-04-11T16:01:30.766Z,15.40
2023-04-11T16:02:51.882Z,12.50
2023-04-11T16:04:14.146Z,13.88
2023-04-11T16:05:35.044Z,9.25
2023-04-11T16:06:55.573Z,16.58
2023-04-11T16:08:16.260Z,13.27
2023-04-11T16:09:37.091Z,8.98
2023-04-11T16:10:57.943Z,11.90
2023-04-11T16:12:18.781Z,14.80
2023-04-11T16:13:39.292Z,12.77
2023-04-11T16:15:00.061Z,16.13
2023-04-11T16:16:20.979Z,15.30
2023-04-11T16:17:41.850Z,14.25
2023-04-11T16:19:02.433Z,21.92
2023-04-11T16:20:24.551Z,13.13
2023-04-11T16:21:45.026Z,11.90
2023-04-11T16:23:05.726Z,12.35
2023-04-11T16:24:28.480Z,13.20
2023-04-11T16:25:49.231Z,10.85
2023-04-11T16:27:10.048Z,13.80
2023-04-11T16:28:30.868Z,11.10
2023-04-11T16:29:51.612Z,12.02
2023-04-11T16:31:12.598Z,13.20
2023-04-11T16:32:37.586Z,15.95
2023-04-11T16:33:59.009Z,13.77
2023-04-11T16:36:42.489Z,13.85
2023-04-11T16:38:03.204Z,15.88
2023-04-11T16:39:23.804Z,14.73
2023-04-11T16:40:45.368Z,18.45
2023-04-11T16:42:06.089Z,16.58
2023-04-11T16:43:26.762Z,14.17
2023-04-11T16:44:47.460Z,23.35
2023-04-11T16:46:11.463Z,19.45
2023-04-11T16:47:31.981Z,24.48
2023-04-11T16:48:52.759Z,18.98
2023-04-11T16:50:13.296Z,18.50
2023-04-11T16:51:34.015Z,19.50
2023-04-11T16:52:56.115Z,16.92
2023-04-11T16:54:16.986Z,19.70
2023-04-11T16:55:37.437Z,12.38
2023-04-11T16:56:58.266Z,19.73
2023-04-11T16:58:19.094Z,21.95
2023-04-11T16:59:39.998Z,17.02
2023-04-11T17:01:00.771Z,23.07
2023-04-11T17:02:21.577Z,19.80
2023-04-11T17:03:43.370Z,14.90
2023-04-11T17:05:04.229Z,23.63
2023-04-11T17:06:25.057Z,21.55
2023-04-11T17:07:45.890Z,17.48
2023-04-11T17:09:08.171Z,23.42
2023-04-11T17:10:28.983Z,14.32
2023-04-11T17:11:49.633Z,18.65
2023-04-11T17:13:10.269Z,20.57
2023-04-11T17:14:34.100Z,14.80
2023-04-11T17:15:54.685Z,27.05
2023-04-11T17:17:15.806Z,23.17
2023-04-11T17:18:36.622Z,27.08
2023-04-11T17:19:57.345Z,18.63
2023-04-11T17:21:18.259Z,18.60
2023-04-11T17:22:39.318Z,21.77
2023-04-11T17:24:00.058Z,19.73
2023-04-11T17:25:22.211Z,23.05
2023-04-11T17:26:43.042Z,14.32
2023-04-11T17:28:03.899Z,22.27
2023-04-11T17:29:24.461Z,22.40
2023-04-11T17:30:46.086Z,18.73
2023-04-11T17:32:06.681Z,23.58
2023-04-11T17:33:27.145Z,24.03
2023-04-11T17:34:47.779Z,30.35
2023-04-11T17:36:09.025Z,24.30
2023-04-11T17:37:29.717Z,16.83
2023-04-11T17:38:50.511Z,20.48
2023-04-11T17:40:12.140Z,21.98
2023-04-11T17:41:34.310Z,22.83
2023-04-11T17:42:55.034Z,16.48
2023-04-11T17:44:15.922Z,24.85
2023-04-11T17:45:36.454Z,19.08
2023-04-11T17:46:57.005Z,21.75
2023-04-11T17:48:17.751Z,21.25
2023-04-11T17:49:38.411Z,17.63
2023-04-11T17:50:59.250Z,25.70